Time;durP1;ratioP1;P1;durP2;ratioP2;P2;SDS_P1;SDS_P2;PMS_P1;PMS_P2;Temp;Humidity;BMP_temperature;BMP_pressure;BME280_temperature;BME280_humidity;BME280_pressure;Samples;Min_cycle;Max_cycle;Signal;HPM_P1;HPM_P2
2020/12/13 00:00:34;;;;;;;36.33;18.98;;;;;;;-1.49;87.26;100616.87;1799803;79;21207;-74
2020/12/13 00:03:02;;;;;;;22.73;12.10;;;;;;;-1.48;87.26;100615.06;1798957;79;21191;-71
2020/12/13 00:05:30;;;;;;;32.05;17.65;;;;;;;-1.46;87.27;100617.02;1804618;77;21158;-74
2020/12/13 00:07:58;;;;;;;31.00;16.65;;;;;;;-1.46;87.26;100621.75;1799188;79;21162;-73
2020/12/13 00:10:26;;;;;;;34.25;18.25;;;;;;;-1.45;87.28;100619.48;1801978;79;21376;-71
2020/12/13 00:12:54;;;;;;;32.95;18.12;;;;;;;-1.45;87.27;100619.95;1798506;79;21186;-72
2020/12/13 00:15:22;;;;;;;29.15;15.05;;;;;;;-1.42;87.29;100624.34;1797341;77;21186;-72
2020/12/13 00:17:51;;;;;;;29.55;15.50;;;;;;;-1.42;87.32;100615.16;1796435;79;21190;-71
2020/12/13 00:20:19;;;;;;;35.43;18.42;;;;;;;-1.40;87.30;100624.17;1800689;79;21194;-71
2020/12/13 00:22:48;;;;;;;32.15;17.85;;;;;;;-1.39;87.36;100623.17;1799049;77;21355;-73
2020/12/13 00:25:16;;;;;;;27.60;14.25;;;;;;;-1.34;87.35;100627.91;1797827;79;21195;-72
2020/12/13 00:27:44;;;;;;;27.87;15.60;;;;;;;-1.33;87.36;100629.02;1798685;79;22460;-73
2020/12/13 00:30:12;;;;;;;30.45;16.02;;;;;;;-1.33;87.33;100622.97;1801311;79;21174;-71
2020/12/13 00:32:40;;;;;;;26.65;14.78;;;;;;;-1.34;87.36;100629.21;1797378;79;21793;-73
2020/12/13 00:35:08;;;;;;;26.23;14.18;;;;;;;-1.35;87.35;100632.33;1801745;77;22742;-72
2020/12/13 00:37:36;;;;;;;30.37;16.30;;;;;;;-1.33;87.40;100634.77;1800125;79;21175;-71
2020/12/13 00:40:04;;;;;;;30.00;16.60;;;;;;;-1.33;87.39;100629.02;1799466;79;21706;-73
2020/12/13 00:42:32;;;;;;;31.68;17.77;;;;;;;-1.29;87.43;100632.09;1797828;77;21546;-73
2020/12/13 00:45:00;;;;;;;28.75;16.15;;;;;;;-1.29;87.43;100628.98;1798366;79;21170;-73
2020/12/13 00:47:29;;;;;;;25.02;14.30;;;;;;;-1.28;87.43;100623.27;1798212;77;21279;-72
2020/12/13 00:49:57;;;;;;;24.10;13.32;;;;;;;-1.28;87.43;100619.34;1800282;79;21215;-72
2020/12/13 00:52:24;;;;;;;27.98;14.75;;;;;;;-1.28;87.46;100614.91;1799836;79;21225;-74
2020/12/13 00:54:53;;;;;;;30.62;17.23;;;;;;;-1.26;87.49;100613.41;1810269;79;21147;-72
2020/12/13 00:57:24;;;;;;;28.73;15.58;;;;;;;-1.24;87.48;100616.17;1809581;77;21327;-74
2020/12/13 00:59:53;;;;;;;23.05;12.88;;;;;;;-1.23;87.50;100605.19;1792280;79;21346;-73
2020/12/13 01:02:21;;;;;;;27.00;14.40;;;;;;;-1.17;87.52;100601.05;1801557;79;21175;-71
2020/12/13 01:04:52;;;;;;;22.90;12.85;;;;;;;-1.15;87.51;100600.35;1791763;79;21229;-72
2020/12/13 01:07:20;;;;;;;23.57;13.93;;;;;;;-1.17;87.51;100597.11;1785670;79;21268;-71
2020/12/13 01:10:48;;;;;;;;;;;;;;;;;;;;;
2020/12/13 01:47:02;;;;;;;16.75;10.32;;;;;;;-1.15;87.84;100576.77;1764663;80;21085;-72
2020/12/13 01:49:38;;;;;;;22.90;13.68;;;;;;;-1.11;87.89;100572.31;1768301;80;21368;-71
2020/12/13 01:55:06;;;;;;;19.62;13.03;;;;;;;-1.09;87.92;100574.73;1769173;80;21695;-72
2020/12/13 01:57:36;;;;;;;24.25;15.25;;;;;;;-1.07;87.97;100572.27;1753352;79;21157;-71
2020/12/13 02:00:16;;;;;;;22.85;13.45;;;;;;;-1.05;87.96;100583.39;1773399;80;21494;-72
2020/12/13 02:02:54;;;;;;;19.12;11.35;;;;;;;-1.04;87.99;100573.72;1769711;80;21379;-71
2020/12/13 02:05:22;;;;;;;22.82;13.53;;;;;;;-1.01;88.03;100574.16;1749602;80;21148;-71
2020/12/13 02:07:50;;;;;;;19.48;11.12;;;;;;;-1.00;88.06;100568.42;1748893;80;21610;-71
2020/12/13 02:10:18;;;;;;;20.08;12.73;;;;;;;-1.00;88.08;100571.05;1737446;80;21268;-71
2020/12/13 02:12:45;;;;;;;21.62;13.05;;;;;;;-0.98;88.12;100565.94;1765435;80;21082;-71
2020/12/13 02:15:13;;;;;;;18.65;11.08;;;;;;;-0.98;88.14;100564.62;1765232;79;21341;-71
2020/12/13 02:17:41;;;;;;;17.65;10.63;;;;;;;-0.96;88.18;100567.87;1763016;80;21659;-72
2020/12/13 02:20:12;;;;;;;20.88;12.55;;;;;;;-0.96;88.21;100568.37;1758521;79;21105;-72
2020/12/13 02:22:48;;;;;;;24.82;15.13;;;;;;;-0.97;88.28;100563.63;1767146;80;21565;-72
2020/12/13 02:25:19;;;;;;;20.80;12.35;;;;;;;-0.96;88.33;100566.55;1765352;79;21665;-72
2020/12/13 02:27:49;;;;;;;25.23;14.45;;;;;;;-0.94;88.38;100569.02;1765153;80;21730;-71
2020/12/13 02:30:17;;;;;;;23.25;14.30;;;;;;;-0.96;88.43;100569.68;1772166;80;21482;-71
2020/12/13 02:32:45;;;;;;;21.40;12.10;;;;;;;-0.93;88.45;100567.20;1766534;79;21621;-71
2020/12/13 02:35:13;;;;;;;21.23;12.05;;;;;;;-0.89;88.50;100565.33;1768978;80;21670;-71
2020/12/13 02:37:41;;;;;;;23.25;14.35;;;;;;;-0.88;88.50;100568.29;1762243;79;21165;-71
2020/12/13 02:40:09;;;;;;;21.97;13.60;;;;;;;-0.86;88.51;100572.84;1737154;80;21221;-71
2020/12/13 02:42:37;;;;;;;23.40;14.23;;;;;;;-0.83;88.54;100576.41;1749512;79;21185;-71
2020/12/13 02:45:05;;;;;;;23.50;14.10;;;;;;;-0.83;88.59;100579.03;1741765;81;21145;-71
2020/12/13 02:47:33;;;;;;;22.45;13.53;;;;;;;-0.79;88.65;100579.01;1748546;80;21121;-71
2020/12/13 02:50:03;;;;;;;22.77;14.15;;;;;;;-0.74;88.63;100585.81;1765119;79;21137;-71
2020/12/13 02:52:30;;;;;;;21.55;13.62;;;;;;;-0.69;88.62;100581.83;1770877;79;21386;-71
2020/12/13 02:54:59;;;;;;;17.75;11.63;;;;;;;-0.67;88.65;100575.41;1789723;79;21197;-72
2020/12/13 02:57:27;;;;;;;20.48;13.18;;;;;;;-0.67;88.67;100575.41;1731538;82;21149;-72
2020/12/13 02:59:55;;;;;;;20.97;13.43;;;;;;;-0.67;88.66;100575.41;1766975;80;21506;-72
2020/12/13 03:02:22;;;;;;;21.30;12.98;;;;;;;-0.64;88.66;100579.48;1733890;82;21181;-72
2020/12/13 03:04:51;;;;;;;25.75;15.45;;;;;;;-0.62;88.72;100582.25;1720768;83;21349;-72
2020/12/13 03:07:19;;;;;;;19.40;12.65;;;;;;;-0.57;88.72;100586.93;1772661;80;21109;-72
2020/12/13 03:09:48;;;;;;;22.58;13.05;;;;;;;-0.52;88.73;100587.21;1750678;80;22264;-72
2020/12/13 03:12:16;;;;;;;20.27;11.68;;;;;;;-0.52;88.68;100584.59;1759620;79;21551;-72
2020/12/13 03:14:44;;;;;;;21.65;13.20;;;;;;;-0.46;88.73;100583.86;1776216;79;21086;-72
2020/12/13 03:17:12;;;;;;;23.80;13.70;;;;;;;-0.45;88.72;100586.78;1715773;82;22031;-72
2020/12/13 03:19:40;;;;;;;20.20;12.70;;;;;;;-0.44;88.74;100579.22;1772230;79;21124;-71
2020/12/13 03:22:08;;;;;;;20.97;13.10;;;;;;;-0.42;88.74;100575.92;1758279;80;21657;-71
2020/12/13 03:24:37;;;;;;;22.35;13.60;;;;;;;-0.40;88.78;100568.66;1765350;79;21149;-72
2020/12/13 03:27:05;;;;;;;18.23;11.10;;;;;;;-0.37;88.80;100560.42;1735310;82;21156;-70
2020/12/13 03:29:33;;;;;;;18.85;12.20;;;;;;;-0.33;88.85;100554.30;1771557;80;21113;-72
2020/12/13 03:32:01;;;;;;;17.23;10.72;;;;;;;-0.31;88.90;100543.13;1780032;79;21141;-73
2020/12/13 03:34:29;;;;;;;20.43;13.00;;;;;;;-0.28;88.94;100542.25;1773797;80;21170;-73
2020/12/13 03:36:57;;;;;;;22.02;12.95;;;;;;;-0.25;88.95;100542.39;1772328;80;21155;-73
2020/12/13 03:39:25;;;;;;;18.82;12.03;;;;;;;-0.20;89.00;100549.69;1763098;80;21122;-72
2020/12/13 03:41:53;;;;;;;19.35;13.25;;;;;;;-0.14;89.05;100559.45;1764048;81;22086;-72
2020/12/13 03:44:21;;;;;;;18.10;11.38;;;;;;;-0.11;89.10;100552.02;1782533;79;21142;-72
2020/12/13 03:46:49;;;;;;;15.55;9.58;;;;;;;-0.06;89.11;100550.16;1773881;79;21157;-72
2020/12/13 03:49:17;;;;;;;16.42;10.20;;;;;;;-0.03;89.12;100557.16;1742660;80;21166;-72
2020/12/13 03:51:45;;;;;;;15.93;9.85;;;;;;;-0.02;89.13;100557.97;1730381;81;21097;-72
2020/12/13 03:54:13;;;;;;;17.02;10.85;;;;;;;-0.01;89.20;100557.77;1756599;79;21815;-72
2020/12/13 03:56:41;;;;;;;19.32;12.07;;;;;;;0.01;89.21;100561.53;1762915;80;21118;-72
2020/12/13 03:59:09;;;;;;;14.65;9.90;;;;;;;0.01;89.20;100564.16;1767939;80;21636;-71
2020/12/13 04:01:37;;;;;;;16.00;10.90;;;;;;;0.02;89.23;100563.15;1747141;80;21165;-72
2020/12/13 04:04:05;;;;;;;18.25;11.73;;;;;;;0.02;89.24;100567.09;1748267;80;21479;-72
2020/12/13 04:06:33;;;;;;;16.17;10.68;;;;;;;0.03;89.28;100563.45;1726630;82;21396;-72
2020/12/13 04:09:01;;;;;;;17.82;11.08;;;;;;;0.04;89.31;100566.41;1770064;79;21681;-72
2020/12/13 04:11:29;;;;;;;22.17;14.23;;;;;;;0.09;89.33;100567.15;1787254;79;21145;-72
2020/12/13 04:13:56;;;;;;;20.23;12.93;;;;;;;0.11;89.35;100570.41;1784584;80;21069;-72
2020/12/13 04:16:24;;;;;;;21.93;13.95;;;;;;;0.13;89.38;100571.02;1773911;79;21113;-72
2020/12/13 04:18:53;;;;;;;18.70;11.55;;;;;;;0.15;89.40;100569.03;1771584;80;22677;-71
2020/12/13 04:21:21;;;;;;;21.37;13.08;;;;;;;0.19;89.39;100563.70;1770787;80;21130;-72
2020/12/13 04:23:49;;;;;;;21.77;13.95;;;;;;;0.19;89.42;100567.14;1773420;80;21222;-72
2020/12/13 04:26:16;;;;;;;26.75;15.03;;;;;;;0.19;89.42;100569.77;1760850;80;21087;-72
2020/12/13 04:28:45;;;;;;;23.95;14.07;;;;;;;0.20;89.45;100567.98;1770732;80;21078;-72
2020/12/13 04:31:13;;;;;;;27.82;15.72;;;;;;;0.23;89.44;100571.52;1714715;83;22278;-72
2020/12/13 04:33:41;;;;;;;24.85;15.50;;;;;;;0.23;89.45;100570.20;1769549;80;21210;-72
2020/12/13 04:36:09;;;;;;;23.25;13.72;;;;;;;0.27;89.50;100574.60;1771389;79;21146;-71
2020/12/13 04:38:37;;;;;;;24.18;15.63;;;;;;;0.28;89.52;100578.84;1747606;80;21184;-71
2020/12/13 04:41:05;;;;;;;30.12;17.10;;;;;;;0.33;89.54;100579.08;1787021;79;21133;-72
2020/12/13 04:43:33;;;;;;;32.98;18.70;;;;;;;0.35;89.50;100582.34;1713320;82;21384;-72
2020/12/13 04:46:01;;;;;;;24.70;14.60;;;;;;;0.38;89.54;100579.34;1716917;82;21621;-72
2020/12/13 04:48:29;;;;;;;30.00;18.32;;;;;;;0.41;89.54;100578.45;1773356;79;21172;-72
2020/12/13 04:50:57;;;;;;;35.00;19.07;;;;;;;0.41;89.50;100577.64;1762827;80;21162;-72
2020/12/13 04:53:26;;;;;;;32.00;18.85;;;;;;;0.42;89.49;100583.20;1767605;80;21075;-72
2020/12/13 04:56:00;;;;;;;27.00;15.32;;;;;;;0.45;89.51;100580.20;1771206;80;21783;-72
2020/12/13 04:58:28;;;;;;;;;;;;;;;0.44;89.51;100579.89;1771639;80;21224;-72
2020/12/13 05:00:58;;;;;;;40.23;21.55;;;;;;;0.44;89.52;100582.02;1766208;80;20489;-72
2020/12/13 05:03:27;;;;;;;37.85;21.62;;;;;;;0.45;89.56;100580.20;1789284;79;21125;-72
2020/12/13 05:06:00;;;;;;;40.52;23.47;;;;;;;0.47;89.54;100576.89;1775407;79;22262;-72
2020/12/13 05:08:29;;;;;;;35.68;20.15;;;;;;;0.49;89.51;100569.61;1769151;80;21373;-72
2020/12/13 05:10:57;;;;;;;43.05;23.42;;;;;;;0.50;89.51;100579.14;1728501;82;21155;-72
2020/12/13 05:13:25;;;;;;;41.55;22.55;;;;;;;0.49;89.52;100582.75;1746335;80;21269;-72
2020/12/13 05:15:54;;;;;;;34.85;19.62;;;;;;;0.50;89.51;100580.45;1771434;79;21146;-72
2020/12/13 05:18:23;;;;;;;44.73;23.95;;;;;;;0.50;89.50;100584.91;1756608;80;21344;-72
2020/12/13 05:20:52;;;;;;;34.27;18.82;;;;;;;0.50;89.53;100579.14;1725398;82;22192;-72
2020/12/13 05:23:19;;;;;;;44.00;23.98;;;;;;;0.52;89.57;100581.06;1755606;81;21212;-72
2020/12/13 05:25:49;;;;;;;35.55;20.95;;;;;;;0.51;89.54;100576.01;1743892;81;21583;-72
2020/12/13 05:28:17;;;;;;;39.53;23.42;;;;;;;0.52;89.57;100574.48;1767117;80;21188;-72
2020/12/13 05:30:46;;;;;;;32.65;18.67;;;;;;;0.51;89.58;100568.13;1750176;80;21128;-72
2020/12/13 05:33:35;;;;;;;38.92;21.45;;;;;;;0.50;89.60;100563.38;1773309;80;21379;-72
2020/12/13 05:36:04;;;;;;;33.88;18.37;;;;;;;0.49;89.58;100568.30;1767461;79;21137;-71
2020/12/13 05:38:39;;;;;;;31.20;16.45;;;;;;;0.51;89.60;100572.06;1734645;82;21208;-71
2020/12/13 05:41:09;;;;;;;36.88;18.77;;;;;;;0.51;89.64;100570.75;1766753;79;21111;-73
2020/12/13 05:51:44;;;;;;;30.27;18.00;;;;;;;0.63;89.59;100586.32;1763534;80;22266;-72
2020/12/13 05:56:58;;;;;;;32.85;17.62;;;;;;;0.56;89.59;100583.64;1755854;81;21141;-72
2020/12/13 05:59:28;;;;;;;32.05;17.05;;;;;;;0.56;89.62;100590.69;1751223;81;21581;-70
2020/12/13 06:01:58;;;;;;;35.08;19.07;;;;;;;0.56;89.63;100584.11;1744619;80;21353;-71
2020/12/13 06:04:29;;;;;;;30.27;17.10;;;;;;;0.57;89.66;100591.83;1738680;81;21366;-72
2020/12/13 06:07:02;;;;;;;32.95;18.27;;;;;;;0.58;89.67;100578.18;1751141;81;21213;-72
2020/12/13 06:09:38;;;;;;;37.50;19.82;;;;;;;0.57;89.68;100577.38;1730435;81;21597;-72
2020/12/13 06:12:09;;;;;;;35.58;19.52;;;;;;;0.57;89.68;100581.82;1726104;80;21209;-72
2020/12/13 06:14:42;;;;;;;31.70;17.32;;;;;;;0.57;89.67;100582.63;1727397;81;21161;-71
2020/12/13 06:17:10;;;;;;;40.35;21.12;;;;;;;0.56;89.70;100581.02;1746546;81;21361;-72
2020/12/13 06:19:39;;;;;;;36.60;19.70;;;;;;;0.57;89.72;100589.20;1728449;80;21192;-72
2020/12/13 06:22:12;;;;;;;35.60;18.95;;;;;;;0.58;89.73;100582.13;1754020;81;21189;-72
2020/12/13 06:24:46;;;;;;;34.13;20.77;;;;;;;0.61;89.72;100583.06;1715520;82;21162;-72
2020/12/13 06:27:14;;;;;;;37.33;19.85;;;;;;;0.58;89.70;100588.19;1730497;80;21165;-72
2020/12/13 06:29:42;;;;;;;44.98;21.62;;;;;;;0.55;89.72;100587.25;1715472;82;21097;-72
2020/12/13 06:32:10;;;;;;;44.05;22.35;;;;;;;0.56;89.75;100582.33;1726434;81;21149;-71
2020/12/13 06:34:44;;;;;;;40.52;21.42;;;;;;;0.57;89.76;100577.88;1725882;83;21117;-72
2020/12/13 06:37:12;;;;;;;43.45;21.85;;;;;;;0.59;89.79;100578.48;1726968;82;21094;-73
2020/12/13 06:39:42;;;;;;;48.52;23.95;;;;;;;0.60;89.80;100581.44;1732173;80;21130;-72
2020/12/13 06:42:13;;;;;;;48.38;22.35;;;;;;;0.59;89.79;100580.63;1729121;81;21444;-73
2020/12/13 06:44:40;;;;;;;50.88;25.90;;;;;;;0.62;89.82;100584.67;1729051;81;21094;-72
2020/12/13 06:47:23;;;;;;;39.70;20.32;;;;;;;0.61;89.79;100585.17;1744227;80;21148;-72
2020/12/13 06:49:51;;;;;;;49.45;22.50;;;;;;;0.62;89.82;100580.73;1756606;81;21189;-72
2020/12/13 06:52:33;;;;;;;44.73;22.22;;;;;;;0.61;89.84;100578.61;1750443;81;21098;-71
2020/12/13 06:55:06;;;;;;;;;;;;;;;0.63;89.84;100586.32;1707874;80;21329;-71
2020/12/13 06:57:35;;;;;;;57.30;27.10;;;;;;;0.63;89.87;100582.38;1747651;81;20673;-72
2020/12/13 07:00:08;;;;;;;59.88;27.75;;;;;;;0.61;89.90;100581.23;1732750;81;21102;-71
2020/12/13 07:02:49;;;;;;;52.25;25.08;;;;;;;0.64;89.93;100583.99;1742083;81;21460;-71
2020/12/13 07:05:17;;;;;;;48.08;23.22;;;;;;;0.65;89.91;100594.30;1731117;80;21240;-72
2020/12/13 07:07:54;;;;;;;66.12;32.58;;;;;;;0.64;89.92;100592.69;1743126;81;21234;-71
2020/12/13 07:10:22;;;;;;;58.60;28.20;;;;;;;0.62;89.95;100590.73;1741195;81;21058;-71
2020/12/13 07:12:54;;;;;;;50.45;23.35;;;;;;;0.62;89.97;100593.37;1755135;81;21122;-71
2020/12/13 07:17:59;;;;;;;56.00;26.03;;;;;;;0.69;89.99;100596.88;1846885;76;22056;-71
2020/12/13 07:20:27;;;;;;;53.42;24.98;;;;;;;0.62;90.02;100592.55;1807678;78;21100;-73
2020/12/13 07:22:59;;;;;;;47.70;24.12;;;;;;;0.58;90.03;100590.81;1798179;78;21303;-72
2020/12/13 07:25:32;;;;;;;41.17;23.30;;;;;;;0.60;90.09;100588.81;1829115;78;21073;-70
2020/12/13 07:28:24;;;;;;;47.38;23.55;;;;;;;0.62;90.10;100587.30;1821289;78;21104;-71
2020/12/13 07:31:09;;;;;;;45.28;23.18;;;;;;;0.62;90.13;100594.68;1820461;78;21121;-71
2020/12/13 07:33:59;;;;;;;44.55;23.30;;;;;;;0.63;90.12;100599.46;1817957;78;21041;-72
2020/12/13 07:36:26;;;;;;;54.42;29.72;;;;;;;0.66;90.13;100597.27;1795323;78;21345;-71
2020/12/13 07:38:54;;;;;;;43.10;20.70;;;;;;;0.66;90.15;100605.14;1804030;78;21156;-72
2020/12/13 07:41:23;;;;;;;49.83;23.67;;;;;;;0.68;90.19;100603.63;1804865;78;21145;-71
2020/12/13 07:43:58;;;;;;;41.98;23.12;;;;;;;0.70;90.16;100610.33;1809518;78;21105;-72
2020/12/13 07:46:30;;;;;;;44.85;23.95;;;;;;;0.72;90.14;100610.63;1803768;78;21181;-71
2020/12/13 07:49:00;;;;;;;;;;;;;;;0.72;90.15;100602.74;1805512;78;21432;-72
2020/12/13 07:51:28;;;;;;;45.60;22.37;;;;;;;0.70;90.14;100610.33;1807003;78;20283;-72
2020/12/13 07:53:56;;;;;;;38.23;21.12;;;;;;;0.71;90.17;100617.70;1807397;78;21141;-72
2020/12/13 07:56:27;;;;;;;49.33;25.02;;;;;;;0.74;90.16;100612.58;1826331;78;21136;-72
2020/12/13 07:59:19;;;;;;;49.98;27.50;;;;;;;0.75;90.14;100615.00;1805501;78;21124;-71
2020/12/13 08:02:01;;;;;;;39.27;22.07;;;;;;;0.79;90.14;100612.80;1739052;81;21291;-71
2020/12/13 08:04:47;;;;;;;40.28;21.57;;;;;;;0.79;90.12;100615.43;1806754;78;21659;-71
2020/12/13 08:07:16;;;;;;;38.53;20.82;;;;;;;0.79;90.11;100620.21;1817377;78;20989;-72
2020/12/13 08:09:50;;;;;;;40.28;20.92;;;;;;;0.76;90.06;100616.65;1824272;78;21176;-72
2020/12/13 08:12:18;;;;;;;39.40;20.75;;;;;;;0.76;90.08;100611.87;1775176;78;21049;-72
2020/12/13 08:14:48;;;;;;;45.70;23.25;;;;;;;0.75;90.07;100615.51;1807300;78;21368;-71
2020/12/13 08:17:19;;;;;;;40.92;22.87;;;;;;;0.73;90.08;100615.71;1820760;78;21113;-71
2020/12/13 08:22:52;;;;;;;42.67;22.37;;;;;;;0.81;90.12;100617.38;1800786;78;22772;-72
2020/12/13 08:25:39;;;;;;;34.43;18.82;;;;;;;0.78;90.12;100621.70;1776378;79;21170;-72
2020/12/13 08:28:27;;;;;;;33.83;18.30;;;;;;;0.84;90.08;100623.06;1865650;75;23916;-73
2020/12/13 08:30:55;;;;;;;37.98;20.25;;;;;;;0.79;90.06;100622.84;1852357;75;21197;-72
2020/12/13 08:33:30;;;;;;;35.13;18.20;;;;;;;0.79;90.05;100625.95;1819647;78;21376;-72
2020/12/13 08:36:24;;;;;;;36.00;18.70;;;;;;;0.79;90.04;100619.38;1836398;75;21183;-73
2020/12/13 08:39:04;;;;;;;37.78;18.85;;;;;;;0.81;90.05;100613.44;1831901;76;21440;-71
2020/12/13 08:41:32;;;;;;;41.20;22.45;;;;;;;0.79;90.04;100609.70;1833243;76;21197;-72
2020/12/13 08:44:05;;;;;;;34.85;18.82;;;;;;;0.77;90.03;100613.52;1858857;76;21110;-70
2020/12/13 08:46:43;;;;;;;33.83;17.25;;;;;;;0.77;90.04;100616.95;1864784;76;21204;-71
2020/12/13 08:49:31;;;;;;;36.87;21.33;;;;;;;0.86;90.05;100609.74;1815844;77;22681;-71
2020/12/13 08:52:15;;;;;;;37.78;20.95;;;;;;;0.81;90.03;100611.61;1793273;80;21106;-71
2020/12/13 08:54:55;;;;;;;35.98;19.37;;;;;;;0.81;90.00;100605.03;1812460;77;21360;-71
2020/12/13 09:00:17;;;;;;;39.47;20.47;;;;;;;0.87;89.94;100602.96;1820255;77;22379;-72
2020/12/13 09:03:00;;;;;;;36.63;20.35;;;;;;;0.82;89.92;100601.91;1778343;80;21183;-72
2020/12/13 09:05:33;;;;;;;38.30;20.25;;;;;;;0.80;89.87;100603.42;1800847;77;22332;-71
2020/12/13 09:08:08;;;;;;;38.98;20.80;;;;;;;0.79;89.86;100596.55;1809614;78;21119;-73
2020/12/13 09:10:43;;;;;;;42.10;21.65;;;;;;;0.80;89.87;100594.73;1805712;79;21191;-72
2020/12/13 09:13:15;;;;;;;37.30;20.15;;;;;;;0.78;89.85;100584.89;1811545;79;21139;-72
2020/12/13 09:15:44;;;;;;;37.67;19.10;;;;;;;0.80;89.87;100585.02;1819671;78;21152;-71
2020/12/13 09:18:18;;;;;;;38.17;21.85;;;;;;;0.81;89.82;100584.00;1815942;79;21139;-71
2020/12/13 09:20:46;;;;;;;40.40;22.42;;;;;;;0.81;89.81;100581.88;1810742;78;21189;-70
2020/12/13 09:23:23;;;;;;;37.28;19.57;;;;;;;0.81;89.80;100585.83;1756714;78;21677;-72
2020/12/13 09:26:27;;;;;;;42.88;21.07;;;;;;;0.81;89.80;100584.00;1794631;78;21159;-71
2020/12/13 09:28:55;;;;;;;38.73;21.55;;;;;;;0.83;89.79;100575.44;1796939;79;21151;-71
2020/12/13 09:34:16;;;;;;;34.07;20.60;;;;;;;0.87;89.73;100574.55;1870680;76;22829;-71
2020/12/13 09:36:53;;;;;;;38.85;21.90;;;;;;;0.81;89.67;100571.37;1850532;77;21176;-72
2020/12/13 09:39:24;;;;;;;39.65;22.87;;;;;;;0.80;89.66;100568.44;1781659;80;21576;-71
2020/12/13 09:42:04;;;;;;;41.98;23.50;;;;;;;0.80;89.65;100563.17;1768993;79;21659;-72
2020/12/13 09:45:08;;;;;;;40.35;20.55;;;;;;;0.79;89.61;100568.11;1795748;79;21141;-71
2020/12/13 09:47:39;;;;;;;31.85;19.23;;;;;;;0.79;89.64;100567.62;1784199;79;21145;-71
2020/12/13 09:50:07;;;;;;;36.55;21.40;;;;;;;0.80;89.62;100558.73;1779424;79;21663;-71
2020/12/13 09:52:39;;;;;;;35.03;20.10;;;;;;;0.80;89.61;100558.73;1784929;80;21479;-71
2020/12/13 09:55:29;;;;;;;40.30;20.72;;;;;;;0.81;89.60;100555.59;1760039;79;21399;-71
2020/12/13 10:00:53;;;;;;;37.93;20.70;;;;;;;0.92;89.56;100553.25;1829255;76;22008;-72
2020/12/13 10:03:24;;;;;;;41.23;21.07;;;;;;;0.86;89.53;100549.27;1801646;79;21163;-71
2020/12/13 10:06:16;;;;;;;41.55;22.85;;;;;;;0.86;89.49;100554.02;1807243;79;21358;-73
2020/12/13 10:11:47;;;;;;;37.40;19.87;;;;;;;0.88;89.46;100544.61;1809496;79;21184;-70
2020/12/13 10:14:21;;;;;;;39.53;20.25;;;;;;;0.88;89.42;100540.66;1788319;77;21163;-72
2020/12/13 10:16:50;;;;;;;40.55;23.10;;;;;;;0.88;89.36;100532.77;1779529;79;21143;-72
2020/12/13 10:19:20;;;;;;;39.00;22.80;;;;;;;0.87;89.34;100538.53;1785709;77;22423;-71
2020/12/13 10:22:00;;;;;;;37.35;20.80;;;;;;;0.87;89.35;100531.97;1801227;79;21180;-71
2020/12/13 10:24:38;;;;;;;35.98;20.40;;;;;;;0.88;89.30;100528.83;1797150;77;21199;-71
2020/12/13 10:27:06;;;;;;;39.50;22.55;;;;;;;0.90;89.29;100528.14;1720404;81;21223;-72
2020/12/13 10:29:35;;;;;;;38.98;20.77;;;;;;;0.90;89.26;100525.00;1747821;80;21810;-72
2020/12/13 10:32:03;;;;;;;30.25;18.27;;;;;;;0.92;89.24;100531.38;1730725;82;21218;-72
2020/12/13 10:34:31;;;;;;;31.33;18.23;;;;;;;0.91;89.20;100533.20;1722216;81;21786;-71
2020/12/13 10:37:00;;;;;;;33.00;19.07;;;;;;;0.92;89.15;100532.69;1735228;82;21141;-72
2020/12/13 10:39:28;;;;;;;34.20;20.25;;;;;;;0.95;89.15;100537.56;1726645;82;21571;-71
2020/12/13 10:41:56;;;;;;;30.40;17.15;;;;;;;0.96;89.16;100537.89;1721335;82;21167;-72
2020/12/13 10:44:24;;;;;;;27.15;16.23;;;;;;;0.99;89.12;100535.35;1729402;81;21368;-71
2020/12/13 10:46:53;;;;;;;29.85;17.45;;;;;;;1.00;89.06;100532.55;1730779;81;21187;-71
2020/12/13 10:49:21;;;;;;;34.65;21.10;;;;;;;1.00;89.03;100529.11;1719630;81;21180;-71
2020/12/13 10:51:52;;;;;;;30.85;18.27;;;;;;;0.99;89.02;100528.30;1730265;81;21200;-71
2020/12/13 10:54:20;;;;;;;25.32;15.43;;;;;;;1.01;89.00;100532.03;1770189;80;21216;-70
2020/12/13 10:56:48;;;;;;;25.90;16.37;;;;;;;1.01;88.96;100531.53;1730999;81;21389;-71
2020/12/13 10:59:18;;;;;;;23.90;13.60;;;;;;;0.99;88.89;100532.24;1762076;80;21208;-71
2020/12/13 11:01:47;;;;;;;23.35;13.90;;;;;;;0.99;88.87;100534.88;1731389;81;21160;-72
2020/12/13 11:04:18;;;;;;;20.85;13.75;;;;;;;1.00;88.87;100530.42;1732643;81;21168;-71
2020/12/13 11:06:56;;;;;;;23.57;15.50;;;;;;;1.00;88.86;100537.80;1721109;82;21193;-71
2020/12/13 11:09:25;;;;;;;22.40;13.53;;;;;;;1.02;88.86;100539.75;1729091;82;21375;-71
2020/12/13 11:12:06;;;;;;;22.50;13.90;;;;;;;1.07;88.83;100533.38;1831779;77;23293;-69
2020/12/13 11:14:34;;;;;;;22.50;14.18;;;;;;;1.01;88.78;100536.79;1802784;77;21167;-71
2020/12/13 11:17:02;;;;;;;24.72;16.25;;;;;;;1.01;88.76;100534.16;1801795;78;22333;-71
2020/12/13 11:19:32;;;;;;;23.75;14.25;;;;;;;1.01;88.77;100528.09;1816707;77;21501;-71
2020/12/13 11:22:00;;;;;;;19.37;12.65;;;;;;;0.97;88.76;100538.19;1803299;78;21124;-69
2020/12/13 11:24:29;;;;;;;20.92;13.95;;;;;;;0.98;88.74;100536.37;1783191;78;21206;-76
2020/12/13 11:27:01;;;;;;;27.90;17.00;;;;;;;0.98;88.75;100533.73;1803469;78;21110;-72
2020/12/13 11:29:29;;;;;;;20.52;12.90;;;;;;;1.00;88.77;100532.55;1817938;78;21646;-72
2020/12/13 11:31:58;;;;;;;17.62;10.63;;;;;;;1.02;88.77;100537.59;1789010;80;21175;-72
2020/12/13 11:34:42;;;;;;;20.55;14.07;;;;;;;1.04;88.74;100543.48;1793091;77;21143;-71
2020/12/13 11:37:24;;;;;;;23.50;16.17;;;;;;;1.04;88.73;100534.28;1793446;78;21145;-71
2020/12/13 11:40:06;;;;;;;16.10;10.43;;;;;;;1.02;88.72;100534.97;1799984;79;21176;-71
2020/12/13 11:42:56;;;;;;;17.10;11.33;;;;;;;1.02;88.76;100536.28;1802785;79;21369;-73
2020/12/13 11:45:24;;;;;;;15.98;11.12;;;;;;;1.06;88.75;100535.72;1794753;79;21192;-69
2020/12/13 11:47:55;;;;;;;18.48;12.50;;;;;;;1.05;88.69;100539.33;1794165;78;21197;-71
2020/12/13 11:50:23;;;;;;;17.90;11.57;;;;;;;1.03;88.70;100530.03;1805062;77;21183;-71
2020/12/13 11:52:52;;;;;;;15.83;10.75;;;;;;;1.01;88.68;100532.84;1792792;78;21175;-70
2020/12/13 11:55:20;;;;;;;17.92;12.13;;;;;;;1.00;88.67;100528.59;1802938;79;22086;-72
2020/12/13 11:57:48;;;;;;;19.50;12.33;;;;;;;0.98;88.69;100526.66;1803274;78;21152;-71
2020/12/13 12:00:43;;;;;;;16.67;10.50;;;;;;;1.01;88.69;100522.83;1828109;76;23384;-71
2020/12/13 12:03:24;;;;;;;17.15;11.15;;;;;;;0.93;88.68;100521.18;1724413;81;22274;-71
2020/12/13 12:05:52;;;;;;;23.00;15.28;;;;;;;0.97;88.74;100522.92;1721817;82;21377;-71
2020/12/13 12:08:20;;;;;;;16.48;11.35;;;;;;;0.97;88.72;100525.55;1726787;82;21570;-70
2020/12/13 12:10:50;;;;;;;13.70;9.03;;;;;;;0.96;88.71;100522.11;1728602;82;21197;-70
2020/12/13 12:13:17;;;;;;;16.65;11.97;;;;;;;0.97;88.70;100520.28;1717899;82;21166;-71
2020/12/13 12:15:45;;;;;;;19.30;13.80;;;;;;;0.96;88.67;100524.74;1729900;81;21151;-70
2020/12/13 12:18:15;;;;;;;18.07;11.68;;;;;;;0.94;88.66;100529.38;1726770;81;22399;-70
2020/12/13 12:20:43;;;;;;;14.18;10.03;;;;;;;0.91;88.68;100528.44;1723331;81;21218;-70
2020/12/13 12:23:12;;;;;;;18.48;12.00;;;;;;;0.91;88.69;100526.62;1728080;81;21147;-72
2020/12/13 12:25:40;;;;;;;20.17;14.05;;;;;;;0.88;88.68;100526.20;1703272;83;21673;-70
2020/12/13 12:28:08;;;;;;;14.98;10.10;;;;;;;0.86;88.66;100529.55;1709817;82;21175;-70
2020/12/13 12:30:37;;;;;;;14.10;9.45;;;;;;;0.87;88.68;100535.91;1712677;82;21206;-70
2020/12/13 12:33:05;;;;;;;13.98;9.80;;;;;;;0.88;88.68;100533.58;1716565;82;21206;-71
2020/12/13 12:38:30;;;;;;;15.28;11.50;;;;;;;0.93;88.70;100525.13;1813873;76;28655;-69
2020/12/13 12:40:58;;;;;;;14.45;10.45;;;;;;;0.97;88.68;100525.04;1807681;77;21172;-70
2020/12/13 12:43:27;;;;;;;15.75;10.75;;;;;;;1.00;88.56;100532.55;1743301;80;21661;-70